KLM1220 EHGG-LFRB
Flight info
| Callsign | KLM1220 |
|---|---|
| Flight time | 1h 29m |
| Altitude | 34000 |
| Route | PAM L980 IDRID M40 NILON L610 GILDA L620 SAM/N0433F330 M195 LORKU DCT RUSIB |
| Aircraft | A320/M-SDE3FGHIRWY/LB1 |
Departure
| Time | 2026-04-20 17:24 |
|---|---|
| Airport | Groningen Airport Eelde (EHGG) |
Arrival
| Time | 2026-04-20 18:53 |
|---|---|
| Airport | Brest Bretagne airport (LFRB) |
| Time | Latitude | Longitude | Altitude | Speed | Heading |
|---|---|---|---|---|---|
| 2026-04-20 17:12 | 53.12820 | 6.58590 | 23 ft | 0 kts | 355° |
| 2026-04-20 17:18 | 53.12824 | 6.58594 | 25 ft | 1 kts | 24° |
| 2026-04-20 17:18 | 53.12820 | 6.58607 | 25 ft | 1 kts | 118° |
| 2026-04-20 17:18 | 53.12748 | 6.58589 | 24 ft | 24 kts | 212° |
| 2026-04-20 17:19 | 53.12609 | 6.58311 | 20 ft | 39 kts | 232° |
| 2026-04-20 17:19 | 53.12445 | 6.57970 | 20 ft | 30 kts | 230° |
| 2026-04-20 17:19 | 53.12269 | 6.57829 | 24 ft | 29 kts | 187° |
| 2026-04-20 17:19 | 53.12098 | 6.57708 | 25 ft | 28 kts | 228° |
| 2026-04-20 17:20 | 53.11972 | 6.57443 | 21 ft | 31 kts | 233° |
| 2026-04-20 17:20 | 53.11838 | 6.57158 | 21 ft | 32 kts | 232° |
| 2026-04-20 17:20 | 53.11708 | 6.56870 | 23 ft | 19 kts | 233° |
| 2026-04-20 17:20 | 53.11608 | 6.56800 | 25 ft | 14 kts | 166° |
| 2026-04-20 17:21 | 53.11533 | 6.56885 | 27 ft | 12 kts | 143° |
| 2026-04-20 17:21 | 53.11483 | 6.56885 | 28 ft | 13 kts | 217° |
| 2026-04-20 17:21 | 53.11396 | 6.56719 | 22 ft | 20 kts | 227° |
| 2026-04-20 17:21 | 53.11309 | 6.56542 | 20 ft | 21 kts | 235° |
| 2026-04-20 17:22 | 53.11185 | 6.56199 | 23 ft | 27 kts | 261° |
| 2026-04-20 17:22 | 53.11156 | 6.56099 | 26 ft | 8 kts | 183° |
| 2026-04-20 17:22 | 53.11132 | 6.56148 | 27 ft | 6 kts | 76° |
| 2026-04-20 17:22 | 53.11154 | 6.56195 | 26 ft | 0 kts | 49° |
| 2026-04-20 17:23 | 53.11219 | 6.56325 | 23 ft | 49 kts | 51° |
| 2026-04-20 17:23 | 53.11580 | 6.57093 | 26 ft | 116 kts | 52° |
| 2026-04-20 17:23 | 53.12183 | 6.58384 | 124 ft | 156 kts | 48° |
| 2026-04-20 17:24 | 53.12848 | 6.59780 | 840 ft | 154 kts | 49° |
| 2026-04-20 17:24 | 53.13548 | 6.61141 | 1551 ft | 159 kts | 50° |
| 2026-04-20 17:24 | 53.14314 | 6.62629 | 1912 ft | 180 kts | 50° |
| 2026-04-20 17:24 | 53.15114 | 6.64388 | 2281 ft | 203 kts | 65° |
| 2026-04-20 17:25 | 53.15188 | 6.66856 | 2711 ft | 234 kts | 105° |
| 2026-04-20 17:25 | 53.14155 | 6.69068 | 3511 ft | 254 kts | 141° |
| 2026-04-20 17:25 | 53.12540 | 6.70368 | 4439 ft | 265 kts | 162° |
| 2026-04-20 17:25 | 53.10671 | 6.70495 | 5338 ft | 277 kts | 189° |
| 2026-04-20 17:26 | 53.08919 | 6.69124 | 6251 ft | 285 kts | 219° |
| 2026-04-20 17:26 | 53.07668 | 6.66557 | 7166 ft | 288 kts | 236° |
| 2026-04-20 17:26 | 53.06569 | 6.63746 | 8057 ft | 291 kts | 236° |
| 2026-04-20 17:26 | 53.05471 | 6.60901 | 8948 ft | 293 kts | 236° |
| 2026-04-20 17:27 | 53.04364 | 6.58035 | 9845 ft | 296 kts | 236° |
| 2026-04-20 17:27 | 53.03240 | 6.55138 | 10567 ft | 304 kts | 236° |
| 2026-04-20 17:27 | 53.02043 | 6.52075 | 10821 ft | 328 kts | 235° |
| 2026-04-20 17:27 | 53.00766 | 6.48818 | 11278 ft | 342 kts | 235° |
| 2026-04-20 17:28 | 52.99453 | 6.45476 | 11964 ft | 348 kts | 235° |
| 2026-04-20 17:28 | 52.98135 | 6.42131 | 12681 ft | 353 kts | 235° |
| 2026-04-20 17:28 | 52.96782 | 6.38711 | 13404 ft | 357 kts | 234° |
| 2026-04-20 17:28 | 52.95405 | 6.35241 | 14108 ft | 362 kts | 234° |
| 2026-04-20 17:29 | 52.94014 | 6.31739 | 14746 ft | 366 kts | 234° |
| 2026-04-20 17:29 | 52.92604 | 6.28187 | 15404 ft | 370 kts | 234° |
| 2026-04-20 17:29 | 52.91186 | 6.24602 | 16062 ft | 373 kts | 234° |
| 2026-04-20 17:29 | 52.89863 | 6.20878 | 16697 ft | 378 kts | 243° |
| 2026-04-20 17:30 | 52.88815 | 6.16846 | 17328 ft | 382 kts | 245° |
| 2026-04-20 17:30 | 52.87770 | 6.12777 | 17957 ft | 386 kts | 244° |
| 2026-04-20 17:30 | 52.86457 | 6.08899 | 18572 ft | 387 kts | 233° |
| 2026-04-20 17:30 | 52.84765 | 6.05425 | 19139 ft | 388 kts | 225° |
| 2026-04-20 17:31 | 52.82993 | 6.02061 | 19735 ft | 389 kts | 225° |
| 2026-04-20 17:31 | 52.81210 | 5.98666 | 20314 ft | 392 kts | 225° |
| 2026-04-20 17:31 | 52.79441 | 5.95298 | 20878 ft | 395 kts | 225° |
| 2026-04-20 17:31 | 52.77635 | 5.91860 | 21443 ft | 397 kts | 225° |
| 2026-04-20 17:32 | 52.75815 | 5.88393 | 22003 ft | 400 kts | 225° |
| 2026-04-20 17:32 | 52.73987 | 5.84911 | 22560 ft | 403 kts | 225° |
| 2026-04-20 17:32 | 52.72142 | 5.81402 | 23104 ft | 406 kts | 225° |
| 2026-04-20 17:32 | 52.70283 | 5.77881 | 23639 ft | 409 kts | 225° |
| 2026-04-20 17:33 | 52.68406 | 5.74336 | 24102 ft | 412 kts | 225° |
| 2026-04-20 17:33 | 52.66516 | 5.70773 | 24527 ft | 414 kts | 225° |
| 2026-04-20 17:33 | 52.64616 | 5.67195 | 24948 ft | 416 kts | 225° |
| 2026-04-20 17:33 | 52.62696 | 5.63587 | 25371 ft | 419 kts | 225° |
| 2026-04-20 17:34 | 52.60772 | 5.59972 | 25746 ft | 422 kts | 225° |
| 2026-04-20 17:34 | 52.58856 | 5.56370 | 26127 ft | 424 kts | 225° |
| 2026-04-20 17:34 | 52.56907 | 5.52711 | 26525 ft | 426 kts | 226° |
| 2026-04-20 17:34 | 52.54947 | 5.49040 | 26924 ft | 428 kts | 226° |
| 2026-04-20 17:35 | 52.52977 | 5.45363 | 27304 ft | 430 kts | 226° |
| 2026-04-20 17:35 | 52.50991 | 5.41665 | 27686 ft | 432 kts | 226° |
| 2026-04-20 17:35 | 52.49000 | 5.37954 | 28058 ft | 434 kts | 226° |
| 2026-04-20 17:35 | 52.46995 | 5.34215 | 28433 ft | 437 kts | 226° |
| 2026-04-20 17:36 | 52.44984 | 5.30472 | 28769 ft | 439 kts | 226° |
| 2026-04-20 17:36 | 52.42952 | 5.26699 | 29102 ft | 441 kts | 226° |
| 2026-04-20 17:36 | 52.40916 | 5.22934 | 29445 ft | 443 kts | 226° |
| 2026-04-20 17:36 | 52.38864 | 5.19156 | 29768 ft | 444 kts | 228° |
| 2026-04-20 17:37 | 52.36806 | 5.15373 | 30129 ft | 445 kts | 228° |
| 2026-04-20 17:37 | 52.34839 | 5.11449 | 30405 ft | 447 kts | 236° |
| 2026-04-20 17:37 | 52.33263 | 5.07133 | 30646 ft | 448 kts | 244° |
| 2026-04-20 17:37 | 52.32092 | 5.02425 | 30885 ft | 448 kts | 252° |
| 2026-04-20 17:38 | 52.31113 | 4.97577 | 31125 ft | 449 kts | 252° |
| 2026-04-20 17:38 | 52.30121 | 4.92732 | 31367 ft | 450 kts | 253° |
| 2026-04-20 17:38 | 52.29122 | 4.87898 | 31684 ft | 449 kts | 253° |
| 2026-04-20 17:38 | 52.28120 | 4.83077 | 32004 ft | 448 kts | 253° |
| 2026-04-20 17:39 | 52.27119 | 4.78264 | 32345 ft | 446 kts | 253° |
| 2026-04-20 17:39 | 52.26124 | 4.73491 | 32674 ft | 445 kts | 252° |
| 2026-04-20 17:39 | 52.25127 | 4.68715 | 32962 ft | 445 kts | 253° |
| 2026-04-20 17:39 | 52.24132 | 4.63938 | 33259 ft | 444 kts | 253° |
| 2026-04-20 17:40 | 52.23141 | 4.59170 | 33585 ft | 443 kts | 253° |
| 2026-04-20 17:40 | 52.22152 | 4.54415 | 33881 ft | 443 kts | 253° |
| 2026-04-20 17:40 | 52.21158 | 4.49655 | 34154 ft | 443 kts | 253° |
| 2026-04-20 17:41 | 52.19181 | 4.40267 | 34214 ft | 433 kts | 253° |
| 2026-04-20 17:41 | 52.17234 | 4.31081 | 34226 ft | 430 kts | 253° |
| 2026-04-20 17:42 | 52.15337 | 4.22153 | 34225 ft | 430 kts | 253° |
| 2026-04-20 17:42 | 52.13376 | 4.12950 | 34236 ft | 430 kts | 253° |
| 2026-04-20 17:43 | 52.11404 | 4.03756 | 34228 ft | 430 kts | 253° |
| 2026-04-20 17:43 | 52.09427 | 3.94570 | 34229 ft | 430 kts | 253° |
| 2026-04-20 17:44 | 52.07438 | 3.85382 | 34549 ft | 435 kts | 253° |
| 2026-04-20 17:44 | 52.06433 | 3.80741 | 34786 ft | 435 kts | 253° |
| 2026-04-20 17:44 | 52.05428 | 3.76103 | 35017 ft | 435 kts | 253° |
| 2026-04-20 17:44 | 52.04416 | 3.71466 | 35251 ft | 435 kts | 252° |
| 2026-04-20 17:45 | 52.03403 | 3.66835 | 35484 ft | 435 kts | 252° |
| 2026-04-20 17:45 | 52.02386 | 3.62197 | 35697 ft | 435 kts | 252° |
| 2026-04-20 17:45 | 52.01367 | 3.57568 | 35909 ft | 436 kts | 253° |
| 2026-04-20 17:45 | 52.00348 | 3.52942 | 36107 ft | 436 kts | 253° |
| 2026-04-20 17:46 | 51.99504 | 3.48235 | 36229 ft | 434 kts | 261° |
| 2026-04-20 17:46 | 51.98596 | 3.38669 | 36240 ft | 430 kts | 263° |
| 2026-04-20 17:47 | 51.97698 | 3.29079 | 36241 ft | 429 kts | 263° |
| 2026-04-20 17:47 | 51.96704 | 3.19511 | 36242 ft | 430 kts | 261° |
| 2026-04-20 17:48 | 51.95478 | 3.10018 | 36248 ft | 430 kts | 260° |
| 2026-04-20 17:48 | 51.94189 | 3.00542 | 36249 ft | 430 kts | 260° |
| 2026-04-20 17:49 | 51.92934 | 2.91063 | 36252 ft | 430 kts | 260° |
| 2026-04-20 17:49 | 51.91703 | 2.81574 | 36261 ft | 430 kts | 260° |
| 2026-04-20 17:50 | 51.90464 | 2.72093 | 36267 ft | 430 kts | 260° |
| 2026-04-20 17:50 | 51.89223 | 2.62694 | 36268 ft | 429 kts | 260° |
| 2026-04-20 17:51 | 51.87967 | 2.53248 | 36269 ft | 429 kts | 260° |
| 2026-04-20 17:51 | 51.86702 | 2.43801 | 36272 ft | 429 kts | 260° |
| 2026-04-20 17:52 | 51.85431 | 2.34362 | 36276 ft | 429 kts | 260° |
| 2026-04-20 17:52 | 51.84148 | 2.24946 | 36280 ft | 428 kts | 260° |
| 2026-04-20 17:53 | 51.82861 | 2.15554 | 36271 ft | 428 kts | 260° |
| 2026-04-20 17:53 | 51.81576 | 2.06175 | 36272 ft | 427 kts | 260° |
| 2026-04-20 17:54 | 51.80282 | 1.96801 | 36271 ft | 427 kts | 260° |
| 2026-04-20 17:54 | 51.78969 | 1.87437 | 36260 ft | 427 kts | 260° |
| 2026-04-20 17:55 | 51.77660 | 1.78118 | 36284 ft | 425 kts | 260° |
| 2026-04-20 17:55 | 51.76353 | 1.68827 | 36292 ft | 423 kts | 260° |
| 2026-04-20 17:56 | 51.75043 | 1.59572 | 36290 ft | 423 kts | 260° |
| 2026-04-20 17:56 | 51.73735 | 1.50391 | 36294 ft | 422 kts | 260° |
| 2026-04-20 17:57 | 51.72407 | 1.41167 | 36285 ft | 422 kts | 260° |
| 2026-04-20 17:57 | 51.71073 | 1.31953 | 36294 ft | 421 kts | 260° |
| 2026-04-20 17:58 | 51.69743 | 1.22765 | 36298 ft | 420 kts | 260° |
| 2026-04-20 17:58 | 51.68405 | 1.13600 | 36298 ft | 420 kts | 260° |
| 2026-04-20 17:59 | 51.67057 | 1.04444 | 36295 ft | 420 kts | 259° |
| 2026-04-20 17:59 | 51.65704 | 0.95305 | 36278 ft | 419 kts | 260° |
| 2026-04-20 18:00 | 51.64351 | 0.86176 | 36285 ft | 418 kts | 260° |
| 2026-04-20 18:00 | 51.62993 | 0.77079 | 36289 ft | 418 kts | 259° |
| 2026-04-20 18:01 | 51.61625 | 0.68057 | 36291 ft | 417 kts | 259° |
| 2026-04-20 18:01 | 51.60019 | 0.59085 | 36286 ft | 421 kts | 250° |
| 2026-04-20 18:02 | 51.56919 | 0.51016 | 36266 ft | 427 kts | 239° |
| 2026-04-20 18:02 | 51.53468 | 0.43267 | 36267 ft | 426 kts | 239° |
| 2026-04-20 18:03 | 51.50014 | 0.35540 | 36282 ft | 425 kts | 239° |
| 2026-04-20 18:03 | 51.46568 | 0.27849 | 36285 ft | 424 kts | 239° |
| 2026-04-20 18:04 | 51.43128 | 0.20172 | 36284 ft | 424 kts | 239° |
| 2026-04-20 18:04 | 51.39682 | 0.12505 | 36284 ft | 424 kts | 239° |
| 2026-04-20 18:05 | 51.34496 | 0.01036 | 36281 ft | 424 kts | 239° |
| 2026-04-20 18:05 | 51.31042 | -0.06596 | 36240 ft | 423 kts | 239° |
| 2026-04-20 18:06 | 51.27589 | -0.14216 | 36247 ft | 423 kts | 239° |
| 2026-04-20 18:06 | 51.24130 | -0.21796 | 36252 ft | 422 kts | 239° |
| 2026-04-20 18:07 | 51.20674 | -0.29360 | 36252 ft | 422 kts | 239° |
| 2026-04-20 18:07 | 51.17214 | -0.36904 | 36252 ft | 421 kts | 239° |
| 2026-04-20 18:08 | 51.13771 | -0.44384 | 36255 ft | 421 kts | 239° |
| 2026-04-20 18:08 | 51.10292 | -0.51911 | 36252 ft | 422 kts | 239° |
| 2026-04-20 18:09 | 51.07383 | -0.58202 | 36251 ft | 421 kts | 241° |
| 2026-04-20 18:09 | 51.04959 | -0.66174 | 36247 ft | 408 kts | 258° |
| 2026-04-20 18:10 | 51.03743 | -0.74932 | 36245 ft | 406 kts | 262° |
| 2026-04-20 18:10 | 51.02551 | -0.83716 | 36243 ft | 407 kts | 262° |
| 2026-04-20 18:11 | 51.01344 | -0.92495 | 36241 ft | 407 kts | 262° |
| 2026-04-20 18:11 | 51.00138 | -1.01272 | 36230 ft | 407 kts | 262° |
| 2026-04-20 18:12 | 50.98931 | -1.10047 | 36237 ft | 406 kts | 262° |
| 2026-04-20 18:12 | 50.97714 | -1.18814 | 36248 ft | 406 kts | 262° |
| 2026-04-20 18:13 | 50.96420 | -1.27559 | 36247 ft | 409 kts | 256° |
| 2026-04-20 18:13 | 50.95277 | -1.31717 | 36244 ft | 416 kts | 245° |
| 2026-04-20 18:13 | 50.93598 | -1.35493 | 36245 ft | 424 kts | 234° |
| 2026-04-20 18:14 | 50.91459 | -1.38680 | 36239 ft | 432 kts | 223° |
| 2026-04-20 18:14 | 50.88952 | -1.41369 | 36223 ft | 436 kts | 219° |
| 2026-04-20 18:14 | 50.83870 | -1.46648 | 36206 ft | 437 kts | 220° |
| 2026-04-20 18:15 | 50.78783 | -1.51918 | 36217 ft | 437 kts | 219° |
| 2026-04-20 18:15 | 50.73686 | -1.57188 | 36224 ft | 438 kts | 220° |
| 2026-04-20 18:16 | 50.68589 | -1.62450 | 36231 ft | 438 kts | 219° |
| 2026-04-20 18:16 | 50.63481 | -1.67697 | 36205 ft | 438 kts | 219° |
| 2026-04-20 18:17 | 50.58364 | -1.72946 | 36210 ft | 439 kts | 219° |
| 2026-04-20 18:17 | 50.53248 | -1.78188 | 36218 ft | 439 kts | 219° |
| 2026-04-20 18:18 | 50.48154 | -1.83383 | 36223 ft | 439 kts | 219° |
| 2026-04-20 18:18 | 50.43024 | -1.88604 | 36218 ft | 439 kts | 219° |
| 2026-04-20 18:19 | 50.37897 | -1.93817 | 36212 ft | 439 kts | 219° |
| 2026-04-20 18:19 | 50.32768 | -1.99014 | 36226 ft | 438 kts | 218° |
| 2026-04-20 18:20 | 50.27646 | -2.04186 | 36230 ft | 438 kts | 218° |
| 2026-04-20 18:20 | 50.22521 | -2.09337 | 36232 ft | 438 kts | 218° |
| 2026-04-20 18:21 | 50.17356 | -2.14379 | 36198 ft | 438 kts | 217° |
| 2026-04-20 18:21 | 50.12215 | -2.19331 | 36222 ft | 437 kts | 217° |
| 2026-04-20 18:22 | 50.07055 | -2.24321 | 36223 ft | 436 kts | 217° |
| 2026-04-20 18:22 | 50.01910 | -2.29313 | 36205 ft | 435 kts | 217° |
| 2026-04-20 18:23 | 49.96772 | -2.34276 | 36210 ft | 435 kts | 217° |
| 2026-04-20 18:23 | 49.92014 | -2.39891 | 36195 ft | 425 kts | 230° |
| 2026-04-20 18:24 | 49.87826 | -2.46362 | 36198 ft | 425 kts | 229° |
| 2026-04-20 18:24 | 49.83615 | -2.52799 | 36200 ft | 425 kts | 229° |
| 2026-04-20 18:25 | 49.79403 | -2.59210 | 36199 ft | 425 kts | 229° |
| 2026-04-20 18:25 | 49.75193 | -2.65618 | 36197 ft | 424 kts | 229° |
| 2026-04-20 18:26 | 49.73095 | -2.68813 | 35926 ft | 423 kts | 229° |
| 2026-04-20 18:26 | 49.71020 | -2.71968 | 35606 ft | 423 kts | 229° |
| 2026-04-20 18:26 | 49.68929 | -2.75145 | 35309 ft | 421 kts | 230° |
| 2026-04-20 18:26 | 49.66846 | -2.78305 | 35011 ft | 420 kts | 230° |
| 2026-04-20 18:27 | 49.64761 | -2.81465 | 34733 ft | 419 kts | 230° |
| 2026-04-20 18:27 | 49.62678 | -2.84617 | 34397 ft | 419 kts | 230° |
| 2026-04-20 18:27 | 49.60579 | -2.87791 | 33310 ft | 426 kts | 230° |
| 2026-04-20 18:27 | 49.58477 | -2.90962 | 32782 ft | 419 kts | 230° |
| 2026-04-20 18:28 | 49.56401 | -2.94074 | 32246 ft | 413 kts | 230° |
| 2026-04-20 18:28 | 49.54354 | -2.97137 | 31720 ft | 408 kts | 230° |
| 2026-04-20 18:28 | 49.52335 | -3.00164 | 31200 ft | 403 kts | 230° |
| 2026-04-20 18:28 | 49.50342 | -3.03151 | 30693 ft | 398 kts | 230° |
| 2026-04-20 18:29 | 49.48366 | -3.06109 | 30149 ft | 394 kts | 230° |
| 2026-04-20 18:29 | 49.46414 | -3.09031 | 29637 ft | 388 kts | 230° |
| 2026-04-20 18:29 | 49.44522 | -3.11864 | 29161 ft | 382 kts | 230° |
| 2026-04-20 18:29 | 49.42605 | -3.14731 | 28683 ft | 377 kts | 229° |
| 2026-04-20 18:30 | 49.40761 | -3.17480 | 28231 ft | 372 kts | 229° |
| 2026-04-20 18:30 | 49.38912 | -3.20231 | 27780 ft | 367 kts | 229° |
| 2026-04-20 18:30 | 49.37085 | -3.22941 | 27338 ft | 363 kts | 229° |
| 2026-04-20 18:30 | 49.35280 | -3.25616 | 26913 ft | 359 kts | 229° |
| 2026-04-20 18:31 | 49.33493 | -3.28265 | 26488 ft | 355 kts | 229° |
| 2026-04-20 18:31 | 49.31727 | -3.30882 | 26074 ft | 351 kts | 230° |
| 2026-04-20 18:31 | 49.29979 | -3.33472 | 25662 ft | 348 kts | 230° |
| 2026-04-20 18:31 | 49.28251 | -3.36032 | 25257 ft | 344 kts | 230° |
| 2026-04-20 18:32 | 49.26540 | -3.38567 | 24847 ft | 341 kts | 230° |
| 2026-04-20 18:32 | 49.24844 | -3.41077 | 24423 ft | 337 kts | 230° |
| 2026-04-20 18:32 | 49.23164 | -3.43561 | 24027 ft | 334 kts | 230° |
| 2026-04-20 18:32 | 49.21496 | -3.46021 | 23591 ft | 332 kts | 230° |
| 2026-04-20 18:33 | 49.19843 | -3.48463 | 23149 ft | 328 kts | 230° |
| 2026-04-20 18:33 | 49.18207 | -3.50878 | 22736 ft | 325 kts | 230° |
| 2026-04-20 18:33 | 49.16590 | -3.53256 | 22325 ft | 321 kts | 229° |
| 2026-04-20 18:33 | 49.14984 | -3.55611 | 21910 ft | 318 kts | 229° |
| 2026-04-20 18:34 | 49.13389 | -3.57947 | 21506 ft | 317 kts | 229° |
| 2026-04-20 18:34 | 49.11803 | -3.60269 | 21109 ft | 315 kts | 229° |
| 2026-04-20 18:34 | 49.10225 | -3.62579 | 20704 ft | 314 kts | 229° |
| 2026-04-20 18:34 | 49.08653 | -3.64881 | 20300 ft | 313 kts | 229° |
| 2026-04-20 18:35 | 49.07085 | -3.67174 | 19902 ft | 312 kts | 229° |
| 2026-04-20 18:35 | 49.05523 | -3.69455 | 19499 ft | 311 kts | 228° |
| 2026-04-20 18:35 | 49.03983 | -3.71700 | 19103 ft | 310 kts | 228° |
| 2026-04-20 18:35 | 49.02426 | -3.73965 | 18712 ft | 309 kts | 228° |
| 2026-04-20 18:36 | 49.00868 | -3.76229 | 18291 ft | 309 kts | 228° |
| 2026-04-20 18:36 | 48.99315 | -3.78490 | 17853 ft | 308 kts | 228° |
| 2026-04-20 18:36 | 48.97764 | -3.80742 | 17447 ft | 307 kts | 228° |
| 2026-04-20 18:36 | 48.96259 | -3.83038 | 17045 ft | 305 kts | 230° |
| 2026-04-20 18:37 | 48.94811 | -3.85386 | 16645 ft | 303 kts | 231° |
| 2026-04-20 18:37 | 48.93391 | -3.87752 | 16246 ft | 302 kts | 231° |
| 2026-04-20 18:37 | 48.91976 | -3.90118 | 15852 ft | 302 kts | 231° |
| 2026-04-20 18:37 | 48.90561 | -3.92472 | 15456 ft | 302 kts | 231° |
| 2026-04-20 18:38 | 48.89139 | -3.94822 | 15054 ft | 301 kts | 231° |
| 2026-04-20 18:38 | 48.87717 | -3.97151 | 14665 ft | 301 kts | 232° |
| 2026-04-20 18:38 | 48.86286 | -3.99480 | 14271 ft | 301 kts | 231° |
| 2026-04-20 18:38 | 48.84854 | -4.01802 | 13863 ft | 301 kts | 232° |
| 2026-04-20 18:39 | 48.83422 | -4.04120 | 13427 ft | 300 kts | 231° |
| 2026-04-20 18:39 | 48.81999 | -4.06425 | 13018 ft | 299 kts | 232° |
| 2026-04-20 18:39 | 48.80585 | -4.08720 | 12620 ft | 297 kts | 232° |
| 2026-04-20 18:39 | 48.79200 | -4.10964 | 12221 ft | 295 kts | 232° |
| 2026-04-20 18:40 | 48.77798 | -4.13231 | 11826 ft | 294 kts | 231° |
| 2026-04-20 18:40 | 48.76402 | -4.15485 | 11429 ft | 293 kts | 230° |
| 2026-04-20 18:40 | 48.75010 | -4.17736 | 11031 ft | 292 kts | 230° |
| 2026-04-20 18:40 | 48.73622 | -4.19977 | 10627 ft | 291 kts | 229° |
| 2026-04-20 18:41 | 48.72234 | -4.22212 | 10263 ft | 290 kts | 228° |
| 2026-04-20 18:41 | 48.70861 | -4.24424 | 10187 ft | 288 kts | 228° |
| 2026-04-20 18:41 | 48.69485 | -4.26640 | 9999 ft | 290 kts | 228° |
| 2026-04-20 18:41 | 48.68087 | -4.28889 | 9417 ft | 293 kts | 227° |
| 2026-04-20 18:42 | 48.66699 | -4.31116 | 9076 ft | 289 kts | 227° |
| 2026-04-20 18:42 | 48.65317 | -4.33334 | 8648 ft | 288 kts | 227° |
| 2026-04-20 18:42 | 48.63945 | -4.35536 | 8231 ft | 287 kts | 226° |
| 2026-04-20 18:42 | 48.62579 | -4.37724 | 7822 ft | 284 kts | 226° |
| 2026-04-20 18:43 | 48.61231 | -4.39882 | 7148 ft | 281 kts | 225° |
| 2026-04-20 18:43 | 48.59888 | -4.42028 | 6434 ft | 281 kts | 225° |
| 2026-04-20 18:43 | 48.58552 | -4.44161 | 5728 ft | 278 kts | 224° |
| 2026-04-20 18:43 | 48.57242 | -4.46251 | 5326 ft | 265 kts | 225° |
| 2026-04-20 18:44 | 48.56019 | -4.48208 | 5268 ft | 248 kts | 225° |
| 2026-04-20 18:44 | 48.54880 | -4.50026 | 5198 ft | 235 kts | 224° |
| 2026-04-20 18:44 | 48.53759 | -4.51816 | 5106 ft | 231 kts | 224° |
| 2026-04-20 18:44 | 48.52768 | -4.53715 | 5004 ft | 231 kts | 239° |
| 2026-04-20 18:45 | 48.52154 | -4.55914 | 4881 ft | 231 kts | 250° |
| 2026-04-20 18:45 | 48.51635 | -4.58193 | 4735 ft | 225 kts | 250° |
| 2026-04-20 18:45 | 48.51133 | -4.60386 | 4605 ft | 217 kts | 250° |
| 2026-04-20 18:45 | 48.50648 | -4.62505 | 4479 ft | 209 kts | 250° |
| 2026-04-20 18:46 | 48.50184 | -4.64536 | 4398 ft | 203 kts | 249° |
| 2026-04-20 18:46 | 48.49727 | -4.66532 | 4252 ft | 199 kts | 250° |
| 2026-04-20 18:46 | 48.49231 | -4.68498 | 4128 ft | 201 kts | 238° |
| 2026-04-20 18:46 | 48.48342 | -4.70076 | 4022 ft | 196 kts | 213° |
| 2026-04-20 18:47 | 48.47142 | -4.70971 | 3821 ft | 191 kts | 191° |
| 2026-04-20 18:47 | 48.45840 | -4.71121 | 3570 ft | 187 kts | 172° |
| 2026-04-20 18:47 | 48.44538 | -4.71072 | 3342 ft | 186 kts | 172° |
| 2026-04-20 18:47 | 48.43251 | -4.71030 | 3126 ft | 184 kts | 175° |
| 2026-04-20 18:48 | 48.41977 | -4.70895 | 3062 ft | 180 kts | 159° |
| 2026-04-20 18:48 | 48.40930 | -4.69982 | 2991 ft | 176 kts | 131° |
| 2026-04-20 18:48 | 48.40358 | -4.68406 | 2859 ft | 170 kts | 102° |
| 2026-04-20 18:48 | 48.40180 | -4.66644 | 2731 ft | 169 kts | 99° |
| 2026-04-20 18:49 | 48.40001 | -4.64902 | 2605 ft | 166 kts | 99° |
| 2026-04-20 18:49 | 48.39982 | -4.63153 | 2472 ft | 168 kts | 82° |
| 2026-04-20 18:49 | 48.40322 | -4.61478 | 2222 ft | 166 kts | 73° |
| 2026-04-20 18:49 | 48.40684 | -4.59912 | 2073 ft | 150 kts | 74° |
| 2026-04-20 18:50 | 48.40995 | -4.58553 | 2018 ft | 130 kts | 74° |
| 2026-04-20 18:50 | 48.41278 | -4.57314 | 2015 ft | 122 kts | 74° |
| 2026-04-20 18:50 | 48.41549 | -4.56119 | 1887 ft | 119 kts | 74° |
| 2026-04-20 18:50 | 48.41809 | -4.54954 | 1681 ft | 118 kts | 74° |
| 2026-04-20 18:51 | 48.42066 | -4.53780 | 1503 ft | 118 kts | 73° |
| 2026-04-20 18:51 | 48.42317 | -4.52596 | 1316 ft | 119 kts | 73° |
| 2026-04-20 18:51 | 48.42590 | -4.51421 | 1205 ft | 119 kts | 69° |
| 2026-04-20 18:51 | 48.42880 | -4.50253 | 1021 ft | 119 kts | 69° |
| 2026-04-20 18:52 | 48.43168 | -4.49065 | 830 ft | 122 kts | 72° |
| 2026-04-20 18:52 | 48.43407 | -4.47855 | 737 ft | 120 kts | 72° |
| 2026-04-20 18:52 | 48.43682 | -4.46657 | 621 ft | 120 kts | 69° |
| 2026-04-20 18:52 | 48.43967 | -4.45470 | 523 ft | 118 kts | 69° |
| 2026-04-20 18:53 | 48.44235 | -4.44278 | 410 ft | 120 kts | 69° |
| 2026-04-20 18:53 | 48.44495 | -4.43104 | 304 ft | 107 kts | 71° |
| 2026-04-20 18:53 | 48.44699 | -4.42297 | 322 ft | 58 kts | 82° |
| 2026-04-20 18:53 | 48.44765 | -4.41924 | 333 ft | 27 kts | 71° |
| 2026-04-20 18:54 | 48.44802 | -4.41764 | 335 ft | 17 kts | 70° |
| 2026-04-20 18:54 | 48.44770 | -4.41643 | 333 ft | 16 kts | 158° |
| 2026-04-20 18:54 | 48.44671 | -4.41634 | 331 ft | 9 kts | 222° |
| 2026-04-20 18:54 | 48.44629 | -4.41700 | 332 ft | 8 kts | 240° |
| 2026-04-20 18:55 | 48.44619 | -4.41778 | 332 ft | 9 kts | 262° |
| 2026-04-20 18:55 | 48.44606 | -4.41882 | 332 ft | 18 kts | 253° |
| 2026-04-20 18:55 | 48.44559 | -4.41985 | 331 ft | 11 kts | 185° |
| 2026-04-20 18:55 | 48.44517 | -4.42013 | 330 ft | 5 kts | 234° |
| 2026-04-20 18:56 | 48.44506 | -4.42007 | 328 ft | 0 kts | 130° |
| 2026-04-20 18:56 | 48.44497 | -4.41991 | 328 ft | 2 kts | 136° |
| 2026-04-20 18:56 | 48.44474 | -4.41982 | 332 ft | 4 kts | 181° |
| 2026-04-20 18:56 | 48.44451 | -4.41991 | 330 ft | 3 kts | 201° |
| 2026-04-20 18:57 | 48.44442 | -4.41997 | 330 ft | 0 kts | 205° |
| 2026-04-20 19:01 | 48.44443 | -4.41997 | 328 ft | 0 kts | 200° |